LHSM 230715Z AUTO 30005KT CAVOK 10/07 Q1022 NOSIG
From batch tds/metars/production/2022/9/23/h07_m55_metars.cache.csv.gz
Observed at (9 days ago)
Identifier LHSM
talk